createdAt,value
2022-10-11T00:00:05.088Z,8.9
2022-10-11T00:05:05.094Z,9.2
2022-10-11T00:10:05.105Z,9.2
2022-10-11T00:15:05.093Z,8.7
2022-10-11T00:20:05.090Z,8.7
2022-10-11T00:25:05.087Z,7.6
2022-10-11T00:30:05.104Z,7.6
2022-10-11T00:35:05.116Z,10.2
2022-10-11T00:40:05.104Z,10.2
2022-10-11T00:45:05.095Z,8.9
2022-10-11T00:50:05.085Z,8.9
2022-10-11T00:55:05.098Z,8.8
2022-10-11T01:00:05.092Z,8.8
2022-10-11T01:05:25.566Z,9
2022-10-11T01:10:05.089Z,9
2022-10-11T01:15:05.097Z,9.6
2022-10-11T01:20:05.088Z,9.6
2022-10-11T01:25:05.185Z,10.2
2022-10-11T01:30:05.097Z,10.2
2022-10-11T01:35:05.097Z,9.7
2022-10-11T01:40:05.085Z,9.7
2022-10-11T01:45:05.084Z,9.4
2022-10-11T01:50:05.086Z,9.4
2022-10-11T01:55:09.411Z,10.1
2022-10-11T02:00:05.085Z,10.1
2022-10-11T02:05:05.099Z,9.7
2022-10-11T02:10:05.103Z,9.7
2022-10-11T02:15:05.098Z,10.3
2022-10-11T02:20:05.100Z,10.3
2022-10-11T02:25:05.084Z,10.3
2022-10-11T02:30:05.079Z,10.3
2022-10-11T02:35:05.092Z,10.8
2022-10-11T02:40:05.090Z,10.8
2022-10-11T02:45:05.090Z,10.9
2022-10-11T02:50:05.090Z,10.9
2022-10-11T02:55:05.084Z,12.1
2022-10-11T03:00:05.085Z,12.1
2022-10-11T03:05:05.088Z,11.7
2022-10-11T03:10:05.088Z,11.7
2022-10-11T03:15:05.103Z,12.6
2022-10-11T03:20:05.083Z,12.6
2022-10-11T03:25:05.139Z,11.8
2022-10-11T03:30:05.095Z,11.8
2022-10-11T03:35:05.090Z,12.5
2022-10-11T03:40:05.089Z,12.5
2022-10-11T03:45:05.097Z,12.4
2022-10-11T03:50:05.083Z,12.4
2022-10-11T03:55:05.086Z,13.1
2022-10-11T04:00:05.088Z,13.1
2022-10-11T04:05:05.168Z,14.4
2022-10-11T04:10:05.084Z,14.4
2022-10-11T04:15:05.094Z,13.2
2022-10-11T04:20:05.085Z,13.2
2022-10-11T04:25:05.112Z,12.4
2022-10-11T04:30:05.090Z,12.4
2022-10-11T04:35:05.093Z,13
2022-10-11T04:40:05.088Z,13
2022-10-11T04:45:05.093Z,12.7
2022-10-11T04:50:05.088Z,12.7
2022-10-11T04:55:05.118Z,13
2022-10-11T05:00:05.154Z,13
2022-10-11T05:05:05.095Z,12.2
2022-10-11T05:10:05.093Z,12.2
2022-10-11T05:15:05.098Z,12.1
2022-10-11T05:20:05.096Z,12.1
2022-10-11T05:25:05.088Z,12.3
2022-10-11T05:30:05.084Z,12.3
2022-10-11T05:35:05.110Z,9.7
2022-10-11T05:40:05.085Z,9.7
2022-10-11T05:45:05.092Z,10.6
2022-10-11T05:50:05.085Z,10.6
2022-10-11T05:55:05.099Z,10.6
2022-10-11T06:00:05.102Z,10.6
2022-10-11T06:05:05.093Z,10.8
2022-10-11T06:10:05.099Z,10.8
2022-10-11T06:15:05.096Z,10.9
2022-10-11T06:20:05.094Z,10.9
2022-10-11T06:25:05.101Z,6.4
2022-10-11T06:30:05.095Z,6.4
2022-10-11T06:35:05.088Z,4.8
2022-10-11T06:40:05.085Z,4.8
2022-10-11T06:45:05.088Z,4.4
2022-10-11T06:50:05.089Z,4.4
2022-10-11T06:55:05.107Z,4.3
2022-10-11T07:00:07.946Z,4.3
2022-10-11T07:05:05.096Z,4.2
2022-10-11T07:10:05.087Z,4.2
2022-10-11T07:15:05.100Z,3.2
2022-10-11T07:20:05.090Z,3.2
2022-10-11T07:25:05.093Z,3.7
2022-10-11T07:30:05.091Z,3.7
2022-10-11T07:35:05.093Z,3
2022-10-11T07:40:05.081Z,3
2022-10-11T07:45:05.090Z,2.6
2022-10-11T07:50:05.082Z,2.6
2022-10-11T07:55:05.108Z,2.7
2022-10-11T08:00:05.122Z,2.7
2022-10-11T08:05:05.094Z,2.2
2022-10-11T08:10:05.081Z,2.2
2022-10-11T08:15:05.093Z,2.2
2022-10-11T08:20:05.087Z,2.2
2022-10-11T08:25:05.091Z,2.4
2022-10-11T08:30:05.083Z,2.4
2022-10-11T08:35:05.089Z,2.2
2022-10-11T08:40:05.102Z,2.2
2022-10-11T08:45:10.840Z,2
2022-10-11T08:50:05.102Z,2
2022-10-11T08:55:05.095Z,2.3
2022-10-11T09:00:05.094Z,2.3
2022-10-11T09:05:05.088Z,2.6
2022-10-11T09:10:05.092Z,2.6
2022-10-11T09:15:05.085Z,2.5
2022-10-11T09:20:05.082Z,2.5
2022-10-11T09:25:05.088Z,2.5
2022-10-11T09:30:05.115Z,2.5
2022-10-11T09:35:05.088Z,1.9
2022-10-11T09:40:05.085Z,1.9
2022-10-11T09:45:05.101Z,2.3
2022-10-11T09:50:05.081Z,2.3
2022-10-11T09:55:05.183Z,2.4
2022-10-11T10:00:05.092Z,2.4
2022-10-11T10:05:05.090Z,2.5
2022-10-11T10:10:05.089Z,2.5
2022-10-11T10:15:05.113Z,2.2
2022-10-11T10:20:05.094Z,2.2
2022-10-11T10:25:05.084Z,2.4
2022-10-11T10:30:05.089Z,2.4
2022-10-11T10:35:05.095Z,2.4
2022-10-11T10:40:05.095Z,2.4
2022-10-11T10:45:08.458Z,2.6
2022-10-11T10:50:05.108Z,2.6
2022-10-11T10:55:05.116Z,2.7
2022-10-11T11:00:05.087Z,2.7
2022-10-11T11:05:05.103Z,2.4
2022-10-11T11:10:05.084Z,2.4
2022-10-11T11:15:05.103Z,3.1
2022-10-11T11:20:05.096Z,3.1
2022-10-11T11:25:05.106Z,3.3
2022-10-11T11:30:05.170Z,3.3
2022-10-11T11:35:05.102Z,3
2022-10-11T11:40:05.098Z,3
2022-10-11T11:45:05.099Z,2.9
2022-10-11T11:50:05.108Z,2.9
2022-10-11T11:55:05.093Z,3
2022-10-11T12:00:05.088Z,3
2022-10-11T12:05:05.103Z,2.9
2022-10-11T12:10:05.096Z,2.9
2022-10-11T12:15:05.097Z,2.9
2022-10-11T12:20:05.164Z,2.9
2022-10-11T12:25:05.105Z,2.7
2022-10-11T12:30:05.098Z,2.7
2022-10-11T12:35:05.097Z,2.9
2022-10-11T12:40:05.084Z,2.9
2022-10-11T12:45:05.092Z,3.3
2022-10-11T12:50:05.090Z,3.3
2022-10-11T12:55:05.130Z,3.9
2022-10-11T13:00:05.104Z,3.9
2022-10-11T13:05:05.103Z,4
2022-10-11T13:10:05.090Z,4
2022-10-11T13:15:05.098Z,3.3
2022-10-11T13:20:05.078Z,3.3
2022-10-11T13:25:05.109Z,4.2
2022-10-11T13:30:05.088Z,4.2
2022-10-11T13:35:05.114Z,3.4
2022-10-11T13:40:05.080Z,3.4
2022-10-11T13:45:05.093Z,3.9
2022-10-11T13:50:05.085Z,3.9
2022-10-11T13:55:05.100Z,3
2022-10-11T14:00:05.089Z,3
2022-10-11T14:05:05.103Z,3.1
2022-10-11T14:10:05.155Z,3.1
2022-10-11T14:15:05.096Z,3.2
2022-10-11T14:20:10.252Z,3.2
2022-10-11T14:25:05.090Z,3.5
2022-10-11T14:30:25.367Z,3.5
2022-10-11T14:35:05.104Z,2.9
2022-10-11T14:40:05.089Z,2.9
2022-10-11T14:45:05.094Z,3.6
2022-10-11T14:50:05.080Z,3.6
2022-10-11T14:55:05.167Z,5
2022-10-11T15:00:05.087Z,5
2022-10-11T15:05:05.128Z,4.3
2022-10-11T15:10:05.089Z,4.3
2022-10-11T15:15:05.087Z,3.4
2022-10-11T15:20:05.083Z,3.4
2022-10-11T15:25:05.099Z,4.1
2022-10-11T15:30:05.087Z,4.1
2022-10-11T15:35:05.098Z,3.3
2022-10-11T15:40:05.091Z,3.3
2022-10-11T15:45:05.084Z,3.5
2022-10-11T15:50:05.091Z,3.5
2022-10-11T15:55:05.088Z,4.1
2022-10-11T16:00:05.089Z,4.1
2022-10-11T16:05:05.091Z,4.4
2022-10-11T16:10:05.105Z,4.4
2022-10-11T16:15:05.091Z,3.7
2022-10-11T16:20:05.089Z,3.7
2022-10-11T16:25:05.090Z,3.3
2022-10-11T16:30:05.088Z,3.3
2022-10-11T16:35:05.094Z,3.4
2022-10-11T16:40:05.102Z,3.4
2022-10-11T16:45:05.097Z,3.6
2022-10-11T16:50:05.104Z,3.6
2022-10-11T16:55:05.087Z,3.4
2022-10-11T17:00:05.090Z,3.4
2022-10-11T17:05:05.094Z,3.3
2022-10-11T17:10:05.091Z,3.3
2022-10-11T17:15:05.100Z,3.2
2022-10-11T17:20:05.092Z,3.2
2022-10-11T17:25:05.086Z,4
2022-10-11T17:30:05.082Z,4
2022-10-11T17:35:05.090Z,3.5
2022-10-11T17:40:05.085Z,3.5
2022-10-11T17:45:05.089Z,3.9
2022-10-11T17:50:05.098Z,3.9
2022-10-11T18:00:05.102Z,3.2
2022-10-11T18:05:05.104Z,3.4
2022-10-11T18:10:05.091Z,3.4
2022-10-11T18:15:05.097Z,3
2022-10-11T18:20:05.081Z,3
2022-10-11T18:25:05.090Z,3.3
2022-10-11T18:30:05.084Z,3.3
2022-10-11T18:35:05.092Z,3.9
2022-10-11T18:40:05.082Z,3.9
2022-10-11T18:45:05.099Z,3.4
2022-10-11T18:50:05.081Z,3.4
2022-10-11T18:55:05.091Z,3.4
2022-10-11T19:00:11.969Z,3.4
2022-10-11T19:05:05.092Z,3.3
2022-10-11T19:10:05.096Z,3.3
2022-10-11T19:15:05.087Z,2.9
2022-10-11T19:20:05.094Z,2.9
2022-10-11T19:25:05.101Z,3.6
2022-10-11T19:30:05.081Z,3.6
2022-10-11T19:35:05.096Z,2.9
2022-10-11T19:40:05.086Z,2.9
2022-10-11T19:45:05.086Z,5.8
2022-10-11T19:50:05.086Z,5.8
2022-10-11T19:55:05.093Z,4.8
2022-10-11T20:00:05.089Z,4.8
2022-10-11T20:05:05.094Z,6.6
2022-10-11T20:10:05.091Z,6.6
2022-10-11T20:15:05.086Z,4
2022-10-11T20:20:05.085Z,4
2022-10-11T20:25:05.141Z,2.6
2022-10-11T20:30:05.084Z,2.6
2022-10-11T20:35:05.096Z,3
2022-10-11T20:40:05.085Z,3
2022-10-11T20:45:05.093Z,3
2022-10-11T20:50:05.081Z,3
2022-10-11T20:55:05.089Z,3.5
2022-10-11T21:00:05.090Z,3.5
2022-10-11T21:05:05.091Z,2.6
2022-10-11T21:10:05.133Z,2.6
2022-10-11T21:15:05.089Z,2.9
2022-10-11T21:20:05.087Z,2.9
2022-10-11T21:25:05.088Z,2.8
2022-10-11T21:30:05.083Z,2.8
2022-10-11T21:35:05.101Z,2.5
2022-10-11T21:40:05.084Z,2.5
2022-10-11T21:45:05.087Z,2.4
2022-10-11T21:50:05.079Z,2.4
2022-10-11T21:55:05.092Z,3
2022-10-11T22:00:05.096Z,3
2022-10-11T22:05:05.101Z,3.1
2022-10-11T22:10:05.098Z,3.1
2022-10-11T22:15:05.110Z,3.2
2022-10-11T22:20:05.089Z,3.2
2022-10-11T22:25:05.097Z,3.3
2022-10-11T22:30:05.083Z,3.3
2022-10-11T22:35:05.085Z,3.3
2022-10-11T22:40:05.093Z,3.3
2022-10-11T22:45:05.310Z,3.4
2022-10-11T22:50:05.087Z,3.4
2022-10-11T22:55:05.101Z,3.8
2022-10-11T23:00:05.092Z,3.8
2022-10-11T23:05:05.102Z,4.2
2022-10-11T23:10:05.085Z,4.2
2022-10-11T23:15:05.111Z,4
2022-10-11T23:20:05.089Z,4
2022-10-11T23:25:05.104Z,4.2
2022-10-11T23:30:05.098Z,4.2
2022-10-11T23:35:05.099Z,3.9
2022-10-11T23:40:05.093Z,3.9
2022-10-11T23:45:05.086Z,4.4
2022-10-11T23:50:05.102Z,4.4
2022-10-11T23:55:05.094Z,4.8
